Pagrindinis puslapis
METAR-TAF:

METAR-TAF

Oro uostai :

Lydd, Anglija

platuma: 50-57N, ilguma: 000-56E, Aukštis: 3 m

Dabartinis oras

Ataskaita buvo paskelbta 17 minutes, ne 19:50 UTC
Vėjas 1 kt nuo kintamojo kryptimis
Temperatūra 2°C
Drėgmė 100%
Slėgis 1046 hPa
Matomumas 10 km arba daugiau

METAR: EGMD 201950Z AUTO VRB01KT 9999 NCD 02/02 Q1046

Laikas: 20:07 (20:07 UTC)

Prognozė

Ataskaita buvo paskelbta 3 valandos ir 7 minutes, ne 17:00 UTC
Prognozė galioja nuo 20 metu 18 UTC su 21 metu 03 UTC
Vėjas 5 kt iš Vakarų/Pietvakarių
Matomumas 10 km arba daugiau
nėra debesų žemiau 1500 m ir nėra kamuolinių lietaus debesų
Tapsmas
nuo 20 metu 21 UTC su 20 metu 24 UTC
Matomumas: 8000 m
Tikimybė 30%
nuo 21 metu 00 UTC su 21 metu 03 UTC
Matomumas: 4000 m
rūkana

TAF: EGMD 201700Z 2018/2103 24005KT CAVOK BECMG 2021/2024 8000 PROB30 2100/2103 4000 BR

Orai ataskaitas ir orų prognozės (METAR, TAF).

turimą stotys yra geltonos ir raudonos taškus žemėlapyje.

Perkelti pele per norėdami pamatyti stoties vardą.

Tada spustelėkite, norėdami matyti oro stebėjimo ir prognozės.

Norėdami pakeisti žemėlapį: spustelėkite ant žalios mygtukų su juodo kryžiaus žemyn,; žalią mygtuką su brūkšneliu, jei norite nutolinti; arba žalių rodyklių gretimoms žemėlapius.


METAR-TAF: